sensor_id;sensor_type;location;lat;lon;timestamp;pressure;altitude;pressure_sealevel;temperature
72405;BMP280;60395;52.020;113.548;2024-01-15T00:00:18;93146.78;;;-22.69
72405;BMP280;60395;52.020;113.548;2024-01-15T00:03:21;93134.78;;;-22.96
72405;BMP280;60395;52.020;113.548;2024-01-15T00:06:24;93125.97;;;-23.23
72405;BMP280;60395;52.020;113.548;2024-01-15T00:09:30;93126.63;;;-23.28
72405;BMP280;60395;52.020;113.548;2024-01-15T00:12:33;93132.75;;;-22.98
72405;BMP280;60395;52.020;113.548;2024-01-15T00:15:37;93132.84;;;-22.61
72405;BMP280;60395;52.020;113.548;2024-01-15T00:18:40;93131.72;;;-22.54
72405;BMP280;60395;52.020;113.548;2024-01-15T00:21:44;93139.69;;;-22.50
72405;BMP280;60395;52.020;113.548;2024-01-15T00:24:48;93141.84;;;-22.32
72405;BMP280;60395;52.020;113.548;2024-01-15T00:27:51;93139.03;;;-22.08
72405;BMP280;60395;52.020;113.548;2024-01-15T00:30:55;93135.06;;;-21.88
72405;BMP280;60395;52.020;113.548;2024-01-15T00:33:58;93151.81;;;-21.89
72405;BMP280;60395;52.020;113.548;2024-01-15T00:37:02;93155.88;;;-21.91
72405;BMP280;60395;52.020;113.548;2024-01-15T00:40:06;93145.53;;;-22.16
72405;BMP280;60395;52.020;113.548;2024-01-15T00:43:10;93134.34;;;-22.37
72405;BMP280;60395;52.020;113.548;2024-01-15T00:46:15;93139.47;;;-22.46
72405;BMP280;60395;52.020;113.548;2024-01-15T00:49:18;93120.44;;;-22.55
72405;BMP280;60395;52.020;113.548;2024-01-15T00:52:21;93121.97;;;-22.58
72405;BMP280;60395;52.020;113.548;2024-01-15T00:55:24;93114.28;;;-22.60
72405;BMP280;60395;52.020;113.548;2024-01-15T00:58:28;93103.97;;;-22.47
72405;BMP280;60395;52.020;113.548;2024-01-15T01:01:31;93109.88;;;-22.44
72405;BMP280;60395;52.020;113.548;2024-01-15T01:04:34;93112.09;;;-22.46
72405;BMP280;60395;52.020;113.548;2024-01-15T01:07:38;93108.72;;;-22.43
72405;BMP280;60395;52.020;113.548;2024-01-15T01:10:41;93106.06;;;-22.40
72405;BMP280;60395;52.020;113.548;2024-01-15T01:13:47;93111.78;;;-22.28
72405;BMP280;60395;52.020;113.548;2024-01-15T01:16:50;93121.13;;;-22.17
72405;BMP280;60395;52.020;113.548;2024-01-15T01:19:54;93119.84;;;-22.02
72405;BMP280;60395;52.020;113.548;2024-01-15T01:22:57;93120.59;;;-21.84
72405;BMP280;60395;52.020;113.548;2024-01-15T01:26:01;93123.97;;;-21.87
72405;BMP280;60395;52.020;113.548;2024-01-15T01:29:04;93096.38;;;-21.84
72405;BMP280;60395;52.020;113.548;2024-01-15T01:32:07;93086.84;;;-21.91
72405;BMP280;60395;52.020;113.548;2024-01-15T01:35:10;93100.66;;;-21.90
72405;BMP280;60395;52.020;113.548;2024-01-15T01:38:14;93112.53;;;-21.62
72405;BMP280;60395;52.020;113.548;2024-01-15T01:41:17;93108.75;;;-21.24
72405;BMP280;60395;52.020;113.548;2024-01-15T01:44:20;93117.84;;;-20.88
72405;BMP280;60395;52.020;113.548;2024-01-15T01:47:24;93125.81;;;-20.67
72405;BMP280;60395;52.020;113.548;2024-01-15T01:50:30;93128.53;;;-20.59
72405;BMP280;60395;52.020;113.548;2024-01-15T01:53:35;93128.75;;;-20.63
72405;BMP280;60395;52.020;113.548;2024-01-15T01:56:41;93128.97;;;-20.61
72405;BMP280;60395;52.020;113.548;2024-01-15T01:59:45;93134.88;;;-20.58
72405;BMP280;60395;52.020;113.548;2024-01-15T02:02:50;93130.13;;;-20.62
72405;BMP280;60395;52.020;113.548;2024-01-15T02:05:53;93145.09;;;-20.67
72405;BMP280;60395;52.020;113.548;2024-01-15T02:08:56;93128.97;;;-20.55
72405;BMP280;60395;52.020;113.548;2024-01-15T02:12:00;93126.53;;;-20.78
72405;BMP280;60395;52.020;113.548;2024-01-15T02:15:03;93114.44;;;-21.35
72405;BMP280;60395;52.020;113.548;2024-01-15T02:18:07;93109.59;;;-21.61
72405;BMP280;60395;52.020;113.548;2024-01-15T02:21:11;93112.81;;;-21.38
72405;BMP280;60395;52.020;113.548;2024-01-15T02:24:14;93121.50;;;-21.06
72405;BMP280;60395;52.020;113.548;2024-01-15T02:27:18;93120.84;;;-20.84
72405;BMP280;60395;52.020;113.548;2024-01-15T02:30:22;93109.69;;;-20.60
72405;BMP280;60395;52.020;113.548;2024-01-15T02:33:27;93090.38;;;-20.43
72405;BMP280;60395;52.020;113.548;2024-01-15T02:36:30;93077.47;;;-20.75
72405;BMP280;60395;52.020;113.548;2024-01-15T02:39:34;93079.09;;;-20.78
72405;BMP280;60395;52.020;113.548;2024-01-15T02:42:37;93074.50;;;-20.46
72405;BMP280;60395;52.020;113.548;2024-01-15T02:45:40;93069.66;;;-20.21
72405;BMP280;60395;52.020;113.548;2024-01-15T02:48:44;93062.56;;;-19.95
72405;BMP280;60395;52.020;113.548;2024-01-15T02:51:47;93063.97;;;-19.64
72405;BMP280;60395;52.020;113.548;2024-01-15T02:54:51;93061.34;;;-19.41
72405;BMP280;60395;52.020;113.548;2024-01-15T02:57:54;93061.31;;;-19.30
72405;BMP280;60395;52.020;113.548;2024-01-15T03:00:58;93055.94;;;-19.15
72405;BMP280;60395;52.020;113.548;2024-01-15T03:04:01;93073.09;;;-18.95
72405;BMP280;60395;52.020;113.548;2024-01-15T03:07:05;93073.50;;;-18.85
72405;BMP280;60395;52.020;113.548;2024-01-15T03:10:09;93063.53;;;-18.67
72405;BMP280;60395;52.020;113.548;2024-01-15T03:13:12;93063.47;;;-18.61
72405;BMP280;60395;52.020;113.548;2024-01-15T03:16:16;93057.97;;;-18.60
72405;BMP280;60395;52.020;113.548;2024-01-15T03:19:19;93062.06;;;-18.56
72405;BMP280;60395;52.020;113.548;2024-01-15T03:22:23;93050.19;;;-18.56
72405;BMP280;60395;52.020;113.548;2024-01-15T03:25:26;93040.34;;;-18.48
72405;BMP280;60395;52.020;113.548;2024-01-15T03:28:29;93027.38;;;-18.28
72405;BMP280;60395;52.020;113.548;2024-01-15T03:31:33;93014.25;;;-18.15
72405;BMP280;60395;52.020;113.548;2024-01-15T03:34:37;93006.53;;;-17.99
72405;BMP280;60395;52.020;113.548;2024-01-15T03:37:40;93007.94;;;-17.84
72405;BMP280;60395;52.020;113.548;2024-01-15T03:40:44;93010.94;;;-17.86
72405;BMP280;60395;52.020;113.548;2024-01-15T03:43:48;92994.44;;;-17.81
72405;BMP280;60395;52.020;113.548;2024-01-15T03:46:51;92997.84;;;-17.79
72405;BMP280;60395;52.020;113.548;2024-01-15T03:49:54;92996.66;;;-17.78
72405;BMP280;60395;52.020;113.548;2024-01-15T03:52:58;93005.94;;;-17.73
72405;BMP280;60395;52.020;113.548;2024-01-15T03:56:01;93007.03;;;-17.68
72405;BMP280;60395;52.020;113.548;2024-01-15T03:59:05;92995.09;;;-17.62
72405;BMP280;60395;52.020;113.548;2024-01-15T04:02:08;92991.75;;;-17.51
72405;BMP280;60395;52.020;113.548;2024-01-15T04:05:13;92983.88;;;-17.42
72405;BMP280;60395;52.020;113.548;2024-01-15T04:08:16;92986.75;;;-17.38
72405;BMP280;60395;52.020;113.548;2024-01-15T04:11:20;92991.81;;;-17.12
72405;BMP280;60395;52.020;113.548;2024-01-15T04:14:23;92990.66;;;-17.11
72405;BMP280;60395;52.020;113.548;2024-01-15T04:17:27;92976.75;;;-16.98
72405;BMP280;60395;52.020;113.548;2024-01-15T04:20:30;92978.84;;;-16.50
72405;BMP280;60395;52.020;113.548;2024-01-15T04:23:34;92977.78;;;-16.41
72405;BMP280;60395;52.020;113.548;2024-01-15T04:26:37;92975.56;;;-16.45
72405;BMP280;60395;52.020;113.548;2024-01-15T04:29:41;92968.41;;;-16.54
72405;BMP280;60395;52.020;113.548;2024-01-15T04:32:44;92953.84;;;-16.55
72405;BMP280;60395;52.020;113.548;2024-01-15T04:35:48;92955.56;;;-16.50
72405;BMP280;60395;52.020;113.548;2024-01-15T04:38:52;92951.09;;;-16.44
72405;BMP280;60395;52.020;113.548;2024-01-15T04:41:55;92955.81;;;-16.41
72405;BMP280;60395;52.020;113.548;2024-01-15T04:44:59;92957.06;;;-16.34
72405;BMP280;60395;52.020;113.548;2024-01-15T04:48:02;92954.13;;;-16.25
72405;BMP280;60395;52.020;113.548;2024-01-15T04:51:09;92945.59;;;-16.09
72405;BMP280;60395;52.020;113.548;2024-01-15T04:54:12;92946.31;;;-16.00
72405;BMP280;60395;52.020;113.548;2024-01-15T04:57:20;92941.03;;;-15.89
72405;BMP280;60395;52.020;113.548;2024-01-15T05:00:24;92940.13;;;-15.79
72405;BMP280;60395;52.020;113.548;2024-01-15T05:03:27;92940.16;;;-15.71
72405;BMP280;60395;52.020;113.548;2024-01-15T05:06:31;92925.66;;;-15.65
72405;BMP280;60395;52.020;113.548;2024-01-15T05:09:34;92927.91;;;-15.54
72405;BMP280;60395;52.020;113.548;2024-01-15T05:12:38;92917.84;;;-15.46
72405;BMP280;60395;52.020;113.548;2024-01-15T05:15:41;92921.09;;;-15.38
72405;BMP280;60395;52.020;113.548;2024-01-15T05:18:45;92920.63;;;-15.29
72405;BMP280;60395;52.020;113.548;2024-01-15T05:21:48;92914.00;;;-15.19
72405;BMP280;60395;52.020;113.548;2024-01-15T05:24:52;92910.00;;;-15.06
72405;BMP280;60395;52.020;113.548;2024-01-15T05:27:55;92914.09;;;-14.96
72405;BMP280;60395;52.020;113.548;2024-01-15T05:30:59;92922.84;;;-14.97
72405;BMP280;60395;52.020;113.548;2024-01-15T05:34:03;92921.66;;;-14.96
72405;BMP280;60395;52.020;113.548;2024-01-15T05:37:06;92925.50;;;-14.95
72405;BMP280;60395;52.020;113.548;2024-01-15T05:40:10;92915.13;;;-14.91
72405;BMP280;60395;52.020;113.548;2024-01-15T05:43:13;92913.13;;;-14.85
72405;BMP280;60395;52.020;113.548;2024-01-15T05:46:17;92905.25;;;-14.82
72405;BMP280;60395;52.020;113.548;2024-01-15T05:49:20;92914.31;;;-14.79
72405;BMP280;60395;52.020;113.548;2024-01-15T05:52:24;92917.88;;;-14.74
72405;BMP280;60395;52.020;113.548;2024-01-15T05:55:28;92922.75;;;-14.68
72405;BMP280;60395;52.020;113.548;2024-01-15T05:58:31;92916.41;;;-14.62
72405;BMP280;60395;52.020;113.548;2024-01-15T06:01:34;92914.41;;;-14.56
72405;BMP280;60395;52.020;113.548;2024-01-15T06:04:38;92909.69;;;-14.52
72405;BMP280;60395;52.020;113.548;2024-01-15T06:07:41;92906.19;;;-14.49
72405;BMP280;60395;52.020;113.548;2024-01-15T06:10:45;92902.63;;;-14.46
72405;BMP280;60395;52.020;113.548;2024-01-15T06:13:48;92895.94;;;-14.35
72405;BMP280;60395;52.020;113.548;2024-01-15T06:16:52;92903.19;;;-14.24
72405;BMP280;60395;52.020;113.548;2024-01-15T06:19:55;92895.63;;;-14.17
72405;BMP280;60395;52.020;113.548;2024-01-15T06:23:00;92886.03;;;-14.11
72405;BMP280;60395;52.020;113.548;2024-01-15T06:26:04;92881.00;;;-14.03
72405;BMP280;60395;52.020;113.548;2024-01-15T06:29:07;92885.19;;;-13.90
72405;BMP280;60395;52.020;113.548;2024-01-15T06:32:11;92865.00;;;-13.83
72405;BMP280;60395;52.020;113.548;2024-01-15T06:35:14;92870.06;;;-13.83
72405;BMP280;60395;52.020;113.548;2024-01-15T06:38:20;92868.53;;;-13.86
72405;BMP280;60395;52.020;113.548;2024-01-15T06:41:23;92869.19;;;-13.85
72405;BMP280;60395;52.020;113.548;2024-01-15T06:44:28;92849.19;;;-13.75
72405;BMP280;60395;52.020;113.548;2024-01-15T06:47:31;92843.94;;;-13.62
72405;BMP280;60395;52.020;113.548;2024-01-15T06:50:35;92833.00;;;-13.72
72405;BMP280;60395;52.020;113.548;2024-01-15T06:53:38;92844.47;;;-13.87
72405;BMP280;60395;52.020;113.548;2024-01-15T06:56:42;92835.88;;;-13.84
72405;BMP280;60395;52.020;113.548;2024-01-15T06:59:45;92837.38;;;-13.65
72405;BMP280;60395;52.020;113.548;2024-01-15T07:02:48;92828.94;;;-13.60
72405;BMP280;60395;52.020;113.548;2024-01-15T07:05:52;92824.56;;;-13.60
72405;BMP280;60395;52.020;113.548;2024-01-15T07:08:55;92824.88;;;-13.56
72405;BMP280;60395;52.020;113.548;2024-01-15T07:11:59;92823.19;;;-13.46
72405;BMP280;60395;52.020;113.548;2024-01-15T07:15:02;92820.44;;;-13.40
72405;BMP280;60395;52.020;113.548;2024-01-15T07:18:07;92823.97;;;-13.35
72405;BMP280;60395;52.020;113.548;2024-01-15T07:21:10;92821.97;;;-13.37
72405;BMP280;60395;52.020;113.548;2024-01-15T07:24:14;92832.75;;;-13.36
72405;BMP280;60395;52.020;113.548;2024-01-15T07:27:17;92841.59;;;-13.13
72405;BMP280;60395;52.020;113.548;2024-01-15T07:30:21;92835.47;;;-12.45
72405;BMP280;60395;52.020;113.548;2024-01-15T07:33:25;92837.44;;;-12.18
72405;BMP280;60395;52.020;113.548;2024-01-15T07:36:29;92853.00;;;-12.47
72405;BMP280;60395;52.020;113.548;2024-01-15T07:39:33;92874.63;;;-12.78
72405;BMP280;60395;52.020;113.548;2024-01-15T07:42:37;92880.66;;;-13.06
72405;BMP280;60395;52.020;113.548;2024-01-15T07:45:45;92893.34;;;-13.29
72405;BMP280;60395;52.020;113.548;2024-01-15T07:48:49;92903.50;;;-13.44
72405;BMP280;60395;52.020;113.548;2024-01-15T07:52:17;92918.00;;;-13.67
72405;BMP280;60395;52.020;113.548;2024-01-15T07:55:21;92925.59;;;-13.83
72405;BMP280;60395;52.020;113.548;2024-01-15T07:58:24;92925.91;;;-13.94
72405;BMP280;60395;52.020;113.548;2024-01-15T08:01:28;92923.22;;;-14.03
72405;BMP280;60395;52.020;113.548;2024-01-15T08:04:32;92926.56;;;-14.16
72405;BMP280;60395;52.020;113.548;2024-01-15T08:07:35;92931.03;;;-14.45
72405;BMP280;60395;52.020;113.548;2024-01-15T08:10:39;92935.38;;;-14.61
72405;BMP280;60395;52.020;113.548;2024-01-15T08:13:42;92934.00;;;-14.69
72405;BMP280;60395;52.020;113.548;2024-01-15T08:16:46;92931.50;;;-14.69
72405;BMP280;60395;52.020;113.548;2024-01-15T08:19:49;92935.50;;;-14.74
72405;BMP280;60395;52.020;113.548;2024-01-15T08:22:53;92939.50;;;-14.86
72405;BMP280;60395;52.020;113.548;2024-01-15T08:25:56;92940.34;;;-14.91
72405;BMP280;60395;52.020;113.548;2024-01-15T08:29:03;92940.47;;;-14.97
72405;BMP280;60395;52.020;113.548;2024-01-15T08:32:07;92932.28;;;-15.18
72405;BMP280;60395;52.020;113.548;2024-01-15T08:35:11;92928.91;;;-15.49
72405;BMP280;60395;52.020;113.548;2024-01-15T08:38:15;92921.94;;;-15.85
72405;BMP280;60395;52.020;113.548;2024-01-15T08:41:18;92927.06;;;-16.19
72405;BMP280;60395;52.020;113.548;2024-01-15T08:44:21;92912.25;;;-16.43
72405;BMP280;60395;52.020;113.548;2024-01-15T08:47:25;92904.03;;;-16.57
72405;BMP280;60395;52.020;113.548;2024-01-15T08:50:31;92895.88;;;-16.71
72405;BMP280;60395;52.020;113.548;2024-01-15T08:53:35;92893.22;;;-16.86
72405;BMP280;60395;52.020;113.548;2024-01-15T08:56:38;92901.22;;;-16.87
72405;BMP280;60395;52.020;113.548;2024-01-15T08:59:42;92892.81;;;-16.77
72405;BMP280;60395;52.020;113.548;2024-01-15T09:02:46;92898.63;;;-16.82
72405;BMP280;60395;52.020;113.548;2024-01-15T09:05:50;92899.75;;;-16.83
72405;BMP280;60395;52.020;113.548;2024-01-15T09:08:53;92893.06;;;-16.67
72405;BMP280;60395;52.020;113.548;2024-01-15T09:11:57;92883.59;;;-16.61
72405;BMP280;60395;52.020;113.548;2024-01-15T09:15:00;92879.53;;;-16.77
72405;BMP280;60395;52.020;113.548;2024-01-15T09:18:07;92885.06;;;-16.79
72405;BMP280;60395;52.020;113.548;2024-01-15T09:21:10;92880.50;;;-16.67
72405;BMP280;60395;52.020;113.548;2024-01-15T09:24:14;92879.69;;;-16.62
72405;BMP280;60395;52.020;113.548;2024-01-15T09:27:28;92885.63;;;-16.73
72405;BMP280;60395;52.020;113.548;2024-01-15T09:30:31;92874.13;;;-16.68
72405;BMP280;60395;52.020;113.548;2024-01-15T09:33:35;92872.13;;;-16.69
72405;BMP280;60395;52.020;113.548;2024-01-15T09:36:40;92873.56;;;-16.74
72405;BMP280;60395;52.020;113.548;2024-01-15T09:39:45;92866.19;;;-16.72
72405;BMP280;60395;52.020;113.548;2024-01-15T09:42:50;92856.94;;;-16.64
72405;BMP280;60395;52.020;113.548;2024-01-15T09:45:54;92845.75;;;-16.76
72405;BMP280;60395;52.020;113.548;2024-01-15T09:48:59;92845.78;;;-16.89
72405;BMP280;60395;52.020;113.548;2024-01-15T09:52:03;92832.94;;;-16.86
72405;BMP280;60395;52.020;113.548;2024-01-15T09:55:13;92835.63;;;-16.84
72405;BMP280;60395;52.020;113.548;2024-01-15T09:58:19;92833.31;;;-16.82
72405;BMP280;60395;52.020;113.548;2024-01-15T10:01:23;92837.72;;;-16.75
72405;BMP280;60395;52.020;113.548;2024-01-15T10:04:28;92845.31;;;-16.67
72405;BMP280;60395;52.020;113.548;2024-01-15T10:07:35;92831.50;;;-16.60
72405;BMP280;60395;52.020;113.548;2024-01-15T10:10:38;92830.34;;;-16.59
72405;BMP280;60395;52.020;113.548;2024-01-15T10:13:43;92821.81;;;-16.56
72405;BMP280;60395;52.020;113.548;2024-01-15T10:16:50;92819.19;;;-16.72
72405;BMP280;60395;52.020;113.548;2024-01-15T10:19:57;92826.81;;;-16.77
72405;BMP280;60395;52.020;113.548;2024-01-15T10:23:00;92824.28;;;-16.77
72405;BMP280;60395;52.020;113.548;2024-01-15T10:26:04;92813.44;;;-16.72
72405;BMP280;60395;52.020;113.548;2024-01-15T10:29:07;92795.19;;;-16.73
72405;BMP280;60395;52.020;113.548;2024-01-15T10:32:11;92809.44;;;-16.88
72405;BMP280;60395;52.020;113.548;2024-01-15T10:35:14;92813.44;;;-16.93
72405;BMP280;60395;52.020;113.548;2024-01-15T10:38:18;92824.06;;;-16.87
72405;BMP280;60395;52.020;113.548;2024-01-15T10:41:25;92826.34;;;-16.89
72405;BMP280;60395;52.020;113.548;2024-01-15T10:44:29;92821.34;;;-16.89
72405;BMP280;60395;52.020;113.548;2024-01-15T10:47:32;92829.16;;;-16.92
72405;BMP280;60395;52.020;113.548;2024-01-15T10:50:36;92830.03;;;-16.90
72405;BMP280;60395;52.020;113.548;2024-01-15T10:53:40;92824.06;;;-16.87
72405;BMP280;60395;52.020;113.548;2024-01-15T10:56:45;92829.66;;;-16.94
72405;BMP280;60395;52.020;113.548;2024-01-15T10:59:49;92817.91;;;-17.12
72405;BMP280;60395;52.020;113.548;2024-01-15T11:02:53;92831.09;;;-17.32
72405;BMP280;60395;52.020;113.548;2024-01-15T11:05:59;92825.19;;;-17.48
72405;BMP280;60395;52.020;113.548;2024-01-15T11:09:03;92824.63;;;-17.68
72405;BMP280;60395;52.020;113.548;2024-01-15T11:12:07;92818.94;;;-17.81
72405;BMP280;60395;52.020;113.548;2024-01-15T11:15:19;92817.88;;;-17.86
72405;BMP280;60395;52.020;113.548;2024-01-15T11:18:25;92820.53;;;-17.84
72405;BMP280;60395;52.020;113.548;2024-01-15T11:21:29;92835.22;;;-17.75
72405;BMP280;60395;52.020;113.548;2024-01-15T11:24:34;92853.47;;;-17.61
72405;BMP280;60395;52.020;113.548;2024-01-15T11:27:47;92854.63;;;-17.49
72405;BMP280;60395;52.020;113.548;2024-01-15T11:30:56;92844.47;;;-17.43
72405;BMP280;60395;52.020;113.548;2024-01-15T11:34:02;92825.66;;;-17.50
72405;BMP280;60395;52.020;113.548;2024-01-15T11:37:06;92803.03;;;-17.57
72405;BMP280;60395;52.020;113.548;2024-01-15T11:40:10;92797.88;;;-17.78
72405;BMP280;60395;52.020;113.548;2024-01-15T11:43:15;92791.72;;;-18.04
72405;BMP280;60395;52.020;113.548;2024-01-15T11:46:25;92786.56;;;-18.11
72405;BMP280;60395;52.020;113.548;2024-01-15T11:53:02;92778.53;;;-17.91
72405;BMP280;60395;52.020;113.548;2024-01-15T11:56:14;92781.19;;;-17.89
72405;BMP280;60395;52.020;113.548;2024-01-15T11:59:18;92781.28;;;-17.94
72405;BMP280;60395;52.020;113.548;2024-01-15T12:02:22;92780.53;;;-17.89
72405;BMP280;60395;52.020;113.548;2024-01-15T12:05:26;92781.59;;;-17.72
72405;BMP280;60395;52.020;113.548;2024-01-15T12:08:29;92778.13;;;-17.55
72405;BMP280;60395;52.020;113.548;2024-01-15T12:11:35;92773.97;;;-17.53
72405;BMP280;60395;52.020;113.548;2024-01-15T12:14:40;92789.88;;;-17.50
72405;BMP280;60395;52.020;113.548;2024-01-15T12:17:44;92792.97;;;-17.44
72405;BMP280;60395;52.020;113.548;2024-01-15T12:20:48;92798.88;;;-17.42
72405;BMP280;60395;52.020;113.548;2024-01-15T12:23:52;92813.97;;;-17.34
72405;BMP280;60395;52.020;113.548;2024-01-15T12:26:57;92809.63;;;-17.34
72405;BMP280;60395;52.020;113.548;2024-01-15T12:30:00;92814.59;;;-17.41
72405;BMP280;60395;52.020;113.548;2024-01-15T12:33:05;92815.06;;;-17.43
72405;BMP280;60395;52.020;113.548;2024-01-15T12:36:08;92816.53;;;-17.47
72405;BMP280;60395;52.020;113.548;2024-01-15T12:39:12;92804.81;;;-17.45
72405;BMP280;60395;52.020;113.548;2024-01-15T12:42:16;92786.16;;;-17.57
72405;BMP280;60395;52.020;113.548;2024-01-15T12:45:20;92773.91;;;-17.87
72405;BMP280;60395;52.020;113.548;2024-01-15T12:48:24;92773.19;;;-18.01
72405;BMP280;60395;52.020;113.548;2024-01-15T12:51:27;92783.31;;;-17.93
72405;BMP280;60395;52.020;113.548;2024-01-15T12:54:31;92770.75;;;-18.06
72405;BMP280;60395;52.020;113.548;2024-01-15T12:57:35;92744.00;;;-18.24
72405;BMP280;60395;52.020;113.548;2024-01-15T13:00:39;92724.88;;;-18.41
72405;BMP280;60395;52.020;113.548;2024-01-15T13:03:42;92721.50;;;-18.56
72405;BMP280;60395;52.020;113.548;2024-01-15T13:06:46;92710.47;;;-18.67
72405;BMP280;60395;52.020;113.548;2024-01-15T13:09:49;92724.38;;;-18.52
72405;BMP280;60395;52.020;113.548;2024-01-15T13:12:56;92748.69;;;-18.34
72405;BMP280;60395;52.020;113.548;2024-01-15T13:16:00;92769.41;;;-18.20
72405;BMP280;60395;52.020;113.548;2024-01-15T13:19:03;92784.19;;;-18.04
72405;BMP280;60395;52.020;113.548;2024-01-15T13:22:07;92773.41;;;-17.99
72405;BMP280;60395;52.020;113.548;2024-01-15T13:25:12;92771.91;;;-18.34
72405;BMP280;60395;52.020;113.548;2024-01-15T13:28:15;92796.06;;;-18.68
72405;BMP280;60395;52.020;113.548;2024-01-15T13:31:19;92775.44;;;-18.74
72405;BMP280;60395;52.020;113.548;2024-01-15T13:34:23;92772.03;;;-18.90
72405;BMP280;60395;52.020;113.548;2024-01-15T13:37:27;92770.41;;;-19.06
72405;BMP280;60395;52.020;113.548;2024-01-15T13:40:30;92762.00;;;-19.09
72405;BMP280;60395;52.020;113.548;2024-01-15T13:43:34;92770.72;;;-19.15
72405;BMP280;60395;52.020;113.548;2024-01-15T13:46:39;92763.38;;;-19.08
72405;BMP280;60395;52.020;113.548;2024-01-15T13:49:42;92756.66;;;-19.18
72405;BMP280;60395;52.020;113.548;2024-01-15T13:52:45;92765.31;;;-19.01
72405;BMP280;60395;52.020;113.548;2024-01-15T13:55:49;92779.19;;;-18.81
72405;BMP280;60395;52.020;113.548;2024-01-15T13:58:53;92779.78;;;-18.75
72405;BMP280;60395;52.020;113.548;2024-01-15T14:01:57;92746.75;;;-18.73
72405;BMP280;60395;52.020;113.548;2024-01-15T14:05:00;92744.56;;;-18.96
72405;BMP280;60395;52.020;113.548;2024-01-15T14:08:05;92786.81;;;-18.92
72405;BMP280;60395;52.020;113.548;2024-01-15T14:11:09;92763.53;;;-18.87
72405;BMP280;60395;52.020;113.548;2024-01-15T14:14:14;92778.44;;;-18.95
72405;BMP280;60395;52.020;113.548;2024-01-15T14:17:17;92769.69;;;-18.88
72405;BMP280;60395;52.020;113.548;2024-01-15T14:20:21;92771.91;;;-18.66
72405;BMP280;60395;52.020;113.548;2024-01-15T14:23:24;92777.38;;;-18.48
72405;BMP280;60395;52.020;113.548;2024-01-15T14:26:28;92783.34;;;-18.38
72405;BMP280;60395;52.020;113.548;2024-01-15T14:29:32;92755.53;;;-18.35
72405;BMP280;60395;52.020;113.548;2024-01-15T14:32:35;92725.97;;;-18.68
72405;BMP280;60395;52.020;113.548;2024-01-15T14:35:39;92751.25;;;-19.04
72405;BMP280;60395;52.020;113.548;2024-01-15T14:38:45;92759.91;;;-19.05
72405;BMP280;60395;52.020;113.548;2024-01-15T14:41:49;92736.56;;;-18.94
72405;BMP280;60395;52.020;113.548;2024-01-15T14:44:52;92739.00;;;-18.88
72405;BMP280;60395;52.020;113.548;2024-01-15T14:47:59;92740.56;;;-18.85
72405;BMP280;60395;52.020;113.548;2024-01-15T14:51:04;92747.00;;;-18.77
72405;BMP280;60395;52.020;113.548;2024-01-15T14:54:09;92750.72;;;-18.65
72405;BMP280;60395;52.020;113.548;2024-01-15T14:57:13;92730.63;;;-18.78
72405;BMP280;60395;52.020;113.548;2024-01-15T15:00:17;92729.19;;;-19.05
72405;BMP280;60395;52.020;113.548;2024-01-15T15:03:21;92723.66;;;-19.17
72405;BMP280;60395;52.020;113.548;2024-01-15T15:06:25;92712.38;;;-19.42
72405;BMP280;60395;52.020;113.548;2024-01-15T15:09:31;92707.19;;;-19.63
72405;BMP280;60395;52.020;113.548;2024-01-15T15:12:35;92705.41;;;-19.49
72405;BMP280;60395;52.020;113.548;2024-01-15T15:15:39;92680.34;;;-19.25
72405;BMP280;60395;52.020;113.548;2024-01-15T15:18:42;92687.38;;;-19.24
72405;BMP280;60395;52.020;113.548;2024-01-15T15:21:46;92682.09;;;-19.20
72405;BMP280;60395;52.020;113.548;2024-01-15T15:24:51;92688.72;;;-19.04
72405;BMP280;60395;52.020;113.548;2024-01-15T15:27:56;92715.19;;;-18.95
72405;BMP280;60395;52.020;113.548;2024-01-15T15:30:59;92712.06;;;-18.82
72405;BMP280;60395;52.020;113.548;2024-01-15T15:34:03;92708.78;;;-18.77
72405;BMP280;60395;52.020;113.548;2024-01-15T15:37:06;92703.50;;;-19.06
72405;BMP280;60395;52.020;113.548;2024-01-15T15:40:12;92686.16;;;-19.55
72405;BMP280;60395;52.020;113.548;2024-01-15T15:43:16;92671.50;;;-19.64
72405;BMP280;60395;52.020;113.548;2024-01-15T15:46:19;92676.91;;;-19.60
72405;BMP280;60395;52.020;113.548;2024-01-15T15:49:23;92673.53;;;-19.62
72405;BMP280;60395;52.020;113.548;2024-01-15T15:52:27;92679.09;;;-19.50
72405;BMP280;60395;52.020;113.548;2024-01-15T15:55:31;92670.78;;;-19.40
72405;BMP280;60395;52.020;113.548;2024-01-15T15:58:35;92679.09;;;-19.50
72405;BMP280;60395;52.020;113.548;2024-01-15T16:01:38;92689.75;;;-19.69
72405;BMP280;60395;52.020;113.548;2024-01-15T16:04:41;92681.03;;;-19.62
72405;BMP280;60395;52.020;113.548;2024-01-15T16:07:45;92667.84;;;-19.44
72405;BMP280;60395;52.020;113.548;2024-01-15T16:10:48;92666.84;;;-19.35
72405;BMP280;60395;52.020;113.548;2024-01-15T16:13:54;92662.03;;;-19.33
72405;BMP280;60395;52.020;113.548;2024-01-15T16:16:58;92675.34;;;-19.44
72405;BMP280;60395;52.020;113.548;2024-01-15T16:20:22;92664.03;;;-19.32
72405;BMP280;60395;52.020;113.548;2024-01-15T16:23:46;92657.28;;;-19.18
72405;BMP280;60395;52.020;113.548;2024-01-15T16:27:09;92642.78;;;-19.38
72405;BMP280;60395;52.020;113.548;2024-01-15T16:30:16;92649.72;;;-19.50
72405;BMP280;60395;52.020;113.548;2024-01-15T16:33:35;92658.53;;;-19.62
72405;BMP280;60395;52.020;113.548;2024-01-15T16:36:38;92677.81;;;-19.57
72405;BMP280;60395;52.020;113.548;2024-01-15T16:39:42;92684.22;;;-19.43
72405;BMP280;60395;52.020;113.548;2024-01-15T16:42:45;92680.88;;;-19.32
72405;BMP280;60395;52.020;113.548;2024-01-15T16:45:50;92686.22;;;-19.23
72405;BMP280;60395;52.020;113.548;2024-01-15T16:48:53;92682.56;;;-19.22
72405;BMP280;60395;52.020;113.548;2024-01-15T16:51:57;92680.63;;;-19.47
72405;BMP280;60395;52.020;113.548;2024-01-15T16:55:00;92681.41;;;-19.77
72405;BMP280;60395;52.020;113.548;2024-01-15T16:58:04;92669.47;;;-19.84